createdAt,value
2017-07-27T00:00:23.539Z,0
2017-07-27T00:01:19.000Z,0
2017-07-27T00:02:18.395Z,0
2017-07-27T00:03:18.690Z,0
2017-07-27T00:04:18.703Z,0
2017-07-27T00:05:19.863Z,0
2017-07-27T00:06:19.033Z,0
2017-07-27T00:07:19.015Z,0
2017-07-27T00:08:18.705Z,0
2017-07-27T00:09:19.001Z,0
2017-07-27T00:10:20.308Z,0
2017-07-27T00:11:19.016Z,0
2017-07-27T00:12:18.708Z,0
2017-07-27T00:13:18.399Z,0
2017-07-27T00:14:19.011Z,0
2017-07-27T00:15:20.119Z,0
2017-07-27T00:16:18.696Z,0
2017-07-27T00:17:19.008Z,0
2017-07-27T00:18:19.012Z,0
2017-07-27T00:19:19.006Z,0
2017-07-27T00:20:20.506Z,0
2017-07-27T00:21:19.013Z,0
2017-07-27T00:22:18.707Z,0
2017-07-27T00:23:19.023Z,0
2017-07-27T00:24:18.720Z,0
2017-07-27T00:25:20.420Z,0
2017-07-27T00:26:19.023Z,0
2017-07-27T00:27:18.403Z,0
2017-07-27T00:28:19.019Z,0
2017-07-27T00:29:19.010Z,0
2017-07-27T00:30:23.864Z,0
2017-07-27T00:31:19.034Z,0
2017-07-27T00:32:19.013Z,0
2017-07-27T00:33:18.709Z,0
2017-07-27T00:34:18.408Z,0
2017-07-27T00:35:20.671Z,0
2017-07-27T00:36:18.713Z,0
2017-07-27T00:37:19.013Z,0
2017-07-27T00:38:18.731Z,0
2017-07-27T00:39:18.728Z,0
2017-07-27T00:40:19.626Z,0
2017-07-27T00:41:18.724Z,0
2017-07-27T00:42:18.715Z,0
2017-07-27T00:43:19.024Z,0
2017-07-27T00:44:18.412Z,0
2017-07-27T00:45:20.148Z,0
2017-07-27T00:46:18.716Z,0
2017-07-27T00:47:19.027Z,0
2017-07-27T00:48:18.721Z,0
2017-07-27T00:49:18.424Z,0
2017-07-27T00:50:19.994Z,0
2017-07-27T00:51:18.725Z,0
2017-07-27T00:52:18.420Z,0
2017-07-27T00:53:18.422Z,0
2017-07-27T00:54:18.417Z,0
2017-07-27T00:55:20.343Z,0
2017-07-27T00:56:19.036Z,0
2017-07-27T00:57:18.724Z,0
2017-07-27T00:58:18.417Z,0
2017-07-27T00:59:19.028Z,0
2017-07-27T01:00:20.511Z,0
2017-07-27T01:01:20.836Z,0
2017-07-27T01:02:18.426Z,0
2017-07-27T01:03:18.735Z,0
2017-07-27T01:04:18.120Z,0
2017-07-27T01:05:20.039Z,0
2017-07-27T01:06:18.729Z,0
2017-07-27T01:07:18.736Z,0
2017-07-27T01:08:18.736Z,0
2017-07-27T01:09:18.731Z,0
2017-07-27T01:10:19.903Z,0
2017-07-27T01:11:19.044Z,0
2017-07-27T01:12:18.734Z,0
2017-07-27T01:13:19.045Z,0
2017-07-27T01:14:18.439Z,0
2017-07-27T01:15:20.241Z,0
2017-07-27T01:16:19.462Z,0
2017-07-27T01:17:19.056Z,0
2017-07-27T01:18:18.749Z,0
2017-07-27T01:19:19.058Z,0
2017-07-27T01:20:19.682Z,0
2017-07-27T01:21:19.054Z,0
2017-07-27T01:22:19.058Z,0
2017-07-27T01:23:18.750Z,0
2017-07-27T01:24:18.770Z,0
2017-07-27T01:25:19.751Z,0
2017-07-27T01:26:18.780Z,0
2017-07-27T01:27:18.757Z,0
2017-07-27T01:28:19.056Z,0
2017-07-27T01:29:19.060Z,0
2017-07-27T01:30:20.391Z,0
2017-07-27T01:31:19.104Z,0
2017-07-27T01:32:19.067Z,0
2017-07-27T01:33:19.061Z,0
2017-07-27T01:34:19.071Z,0
2017-07-27T01:35:20.272Z,0
2017-07-27T01:36:19.067Z,0
2017-07-27T01:37:19.061Z,0
2017-07-27T01:38:18.765Z,0
2017-07-27T01:39:18.469Z,0
2017-07-27T01:40:19.851Z,0
2017-07-27T01:41:19.072Z,0
2017-07-27T01:42:19.079Z,0
2017-07-27T01:43:19.077Z,0
2017-07-27T01:44:18.773Z,0
2017-07-27T01:45:20.230Z,0
2017-07-27T01:46:21.525Z,0
2017-07-27T01:47:19.071Z,0
2017-07-27T01:48:18.774Z,0
2017-07-27T01:49:19.071Z,0
2017-07-27T01:50:20.641Z,0
2017-07-27T01:51:18.773Z,0
2017-07-27T01:52:18.773Z,0
2017-07-27T01:53:18.784Z,0
2017-07-27T01:54:19.103Z,0
2017-07-27T01:55:19.932Z,0
2017-07-27T01:56:19.148Z,0
2017-07-27T01:57:18.476Z,0
2017-07-27T01:58:19.090Z,0
2017-07-27T01:59:19.081Z,0
2017-07-27T02:00:20.544Z,0
2017-07-27T02:01:18.855Z,0
2017-07-27T02:02:18.784Z,0
2017-07-27T02:03:19.089Z,0
2017-07-27T02:04:18.791Z,0
2017-07-27T02:05:20.149Z,0
2017-07-27T02:06:19.091Z,0
2017-07-27T02:07:18.787Z,0
2017-07-27T02:08:19.092Z,0
2017-07-27T02:09:19.089Z,0
2017-07-27T02:10:20.209Z,0
2017-07-27T02:11:19.100Z,0
2017-07-27T02:12:18.803Z,0
2017-07-27T02:13:19.097Z,0
2017-07-27T02:14:18.800Z,0
2017-07-27T02:15:20.195Z,0
2017-07-27T02:16:19.155Z,0
2017-07-27T02:17:18.800Z,0
2017-07-27T02:18:19.096Z,0
2017-07-27T02:19:19.100Z,0
2017-07-27T02:20:20.419Z,0
2017-07-27T02:21:19.103Z,0
2017-07-27T02:22:19.105Z,0
2017-07-27T02:23:19.103Z,0
2017-07-27T02:24:19.105Z,0
2017-07-27T02:25:20.081Z,0
2017-07-27T02:26:19.109Z,0
2017-07-27T02:27:18.810Z,0
2017-07-27T02:28:18.822Z,0
2017-07-27T02:29:18.807Z,0
2017-07-27T02:30:20.194Z,0
2017-07-27T02:31:18.865Z,0
2017-07-27T02:32:18.823Z,0
2017-07-27T02:33:18.810Z,0
2017-07-27T02:34:19.163Z,0
2017-07-27T02:35:19.599Z,0
2017-07-27T02:36:19.141Z,0
2017-07-27T02:37:19.122Z,0
2017-07-27T02:38:19.132Z,0
2017-07-27T02:39:18.824Z,0
2017-07-27T02:40:20.558Z,0
2017-07-27T02:41:18.825Z,0
2017-07-27T02:42:18.829Z,0
2017-07-27T02:43:19.121Z,0
2017-07-27T02:44:19.128Z,0
2017-07-27T02:45:20.663Z,0
2017-07-27T02:46:19.225Z,0
2017-07-27T02:47:18.844Z,0
2017-07-27T02:48:19.127Z,0
2017-07-27T02:49:19.135Z,0
2017-07-27T02:50:19.422Z,0
2017-07-27T02:51:19.135Z,0
2017-07-27T02:52:19.139Z,0
2017-07-27T02:53:18.827Z,0
2017-07-27T02:54:19.130Z,0
2017-07-27T02:55:20.792Z,0
2017-07-27T02:56:19.125Z,0
2017-07-27T02:57:19.139Z,0
2017-07-27T02:58:18.839Z,0
2017-07-27T02:59:19.137Z,0
2017-07-27T03:00:19.818Z,0
2017-07-27T03:01:19.182Z,0
2017-07-27T03:02:19.131Z,0
2017-07-27T03:03:19.135Z,0
2017-07-27T03:04:19.140Z,0
2017-07-27T03:05:20.810Z,0
2017-07-27T03:06:18.839Z,0
2017-07-27T03:07:18.844Z,0
2017-07-27T03:08:19.139Z,0
2017-07-27T03:09:19.141Z,0
2017-07-27T03:10:19.926Z,0
2017-07-27T03:11:18.836Z,0
2017-07-27T03:12:18.851Z,0
2017-07-27T03:13:19.223Z,0
2017-07-27T03:14:19.143Z,0
2017-07-27T03:15:20.077Z,0
2017-07-27T03:16:20.202Z,0
2017-07-27T03:17:19.144Z,0
2017-07-27T03:18:19.152Z,0
2017-07-27T03:19:19.147Z,0
2017-07-27T03:20:20.339Z,0
2017-07-27T03:21:18.855Z,0
2017-07-27T03:22:18.859Z,4
2017-07-27T03:23:19.154Z,4
2017-07-27T03:24:18.849Z,4
2017-07-27T03:25:20.760Z,4
2017-07-27T03:26:18.863Z,4
2017-07-27T03:27:19.158Z,0
2017-07-27T03:28:19.156Z,4
2017-07-27T03:29:18.861Z,4
2017-07-27T03:30:20.314Z,4
2017-07-27T03:31:19.217Z,4
2017-07-27T03:32:18.859Z,4
2017-07-27T03:33:19.160Z,8
2017-07-27T03:34:19.159Z,4
2017-07-27T03:35:20.883Z,8
2017-07-27T03:36:19.164Z,4
2017-07-27T03:37:18.867Z,8
2017-07-27T03:38:19.159Z,12
2017-07-27T03:39:18.571Z,12
2017-07-27T03:40:20.550Z,12
2017-07-27T03:41:19.168Z,12
2017-07-27T03:42:18.870Z,16
2017-07-27T03:43:19.165Z,16
2017-07-27T03:44:18.870Z,20
2017-07-27T03:45:20.282Z,24
2017-07-27T03:46:23.073Z,28
2017-07-27T03:47:18.902Z,32
2017-07-27T03:48:18.964Z,36
2017-07-27T03:49:18.889Z,36
2017-07-27T03:50:20.698Z,40
2017-07-27T03:51:18.587Z,44
2017-07-27T03:52:18.885Z,48
2017-07-27T03:53:18.875Z,52
2017-07-27T03:54:19.180Z,52
2017-07-27T03:55:20.203Z,56
2017-07-27T03:56:18.876Z,56
2017-07-27T03:57:19.182Z,60
2017-07-27T03:58:19.186Z,64
2017-07-27T03:59:18.897Z,68
2017-07-27T04:00:20.515Z,72
2017-07-27T04:01:18.898Z,76
2017-07-27T04:02:18.938Z,76
2017-07-27T04:03:19.184Z,80
2017-07-27T04:04:19.185Z,88
2017-07-27T04:05:19.618Z,96
2017-07-27T04:06:19.193Z,104
2017-07-27T04:07:18.593Z,112
2017-07-27T04:08:19.185Z,120
2017-07-27T04:09:18.901Z,128
2017-07-27T04:10:19.849Z,136
2017-07-27T04:11:19.194Z,148
2017-07-27T04:12:19.188Z,160
2017-07-27T04:13:19.192Z,172
2017-07-27T04:14:19.189Z,184
2017-07-27T04:15:20.660Z,196
2017-07-27T04:16:18.896Z,212
2017-07-27T04:17:20.848Z,248
2017-07-27T04:18:19.190Z,272
2017-07-27T04:19:19.190Z,288
2017-07-27T04:20:20.092Z,308
2017-07-27T04:21:18.892Z,332
2017-07-27T04:22:18.586Z,360
2017-07-27T04:23:19.190Z,388
2017-07-27T04:24:19.201Z,412
2017-07-27T04:25:19.968Z,428
2017-07-27T04:26:19.194Z,436
2017-07-27T04:27:19.200Z,432
2017-07-27T04:28:19.191Z,432
2017-07-27T04:29:19.200Z,440
2017-07-27T04:30:19.645Z,464
2017-07-27T04:31:19.195Z,484
2017-07-27T04:32:19.270Z,508
2017-07-27T04:33:18.910Z,512
2017-07-27T04:34:18.908Z,504
2017-07-27T04:35:19.672Z,484
2017-07-27T04:36:19.204Z,480
2017-07-27T04:37:20.809Z,488
2017-07-27T04:38:19.204Z,504
2017-07-27T04:39:19.204Z,512
2017-07-27T04:40:20.407Z,532
2017-07-27T04:41:19.207Z,552
2017-07-27T04:42:19.228Z,552
2017-07-27T04:43:19.204Z,548
2017-07-27T04:44:19.225Z,552
2017-07-27T04:45:20.175Z,576
2017-07-27T04:46:19.222Z,608
2017-07-27T04:47:21.271Z,648
2017-07-27T04:48:19.223Z,676
2017-07-27T04:49:19.212Z,700
2017-07-27T04:50:19.654Z,732
2017-07-27T04:51:19.225Z,776
2017-07-27T04:52:19.220Z,824
2017-07-27T04:53:18.916Z,884
2017-07-27T04:54:18.918Z,940
2017-07-27T04:55:19.990Z,992
2017-07-27T04:56:19.218Z,1008
2017-07-27T04:57:18.934Z,1040
2017-07-27T04:58:19.222Z,1092
2017-07-27T04:59:19.236Z,1160
2017-07-27T05:00:19.804Z,1248
2017-07-27T05:01:18.928Z,1308
2017-07-27T05:02:18.926Z,1344
2017-07-27T05:03:19.226Z,1408
2017-07-27T05:04:19.239Z,1480
2017-07-27T05:05:19.702Z,1484
2017-07-27T05:06:18.933Z,1444
2017-07-27T05:07:18.942Z,1404
2017-07-27T05:08:18.937Z,1376
2017-07-27T05:09:18.937Z,1376
2017-07-27T05:10:20.206Z,1360
2017-07-27T05:11:19.234Z,1328
2017-07-27T05:12:18.636Z,1312
2017-07-27T05:13:19.244Z,1280
2017-07-27T05:14:18.643Z,1288
2017-07-27T05:15:20.269Z,1264
2017-07-27T05:16:19.249Z,1276
2017-07-27T05:17:19.248Z,1304
2017-07-27T05:18:18.946Z,1376
2017-07-27T05:19:18.944Z,1492
2017-07-27T05:20:20.079Z,1564
2017-07-27T05:21:19.248Z,1592
2017-07-27T05:22:18.958Z,1588
2017-07-27T05:23:19.257Z,1596
2017-07-27T05:24:19.255Z,1596
2017-07-27T05:25:19.943Z,1596
2017-07-27T05:26:19.258Z,1584
2017-07-27T05:27:18.959Z,1564
2017-07-27T05:28:18.958Z,1568
2017-07-27T05:29:19.275Z,1564
2017-07-27T05:30:20.591Z,1568
2017-07-27T05:31:19.265Z,1592
2017-07-27T05:32:19.272Z,1604
2017-07-27T05:33:19.047Z,1592
2017-07-27T05:34:18.969Z,1584
2017-07-27T05:35:20.144Z,1592
2017-07-27T05:36:19.275Z,1568
2017-07-27T05:37:19.289Z,1544
2017-07-27T05:38:19.273Z,1500
2017-07-27T05:39:18.979Z,1428
2017-07-27T05:40:20.224Z,1332
2017-07-27T05:41:18.978Z,1228
2017-07-27T05:42:19.279Z,1156
2017-07-27T05:43:19.291Z,1124
2017-07-27T05:44:19.279Z,1124
2017-07-27T05:45:20.380Z,1132
2017-07-27T05:46:18.981Z,1132
2017-07-27T05:47:19.296Z,1132
2017-07-27T05:48:20.087Z,1124
2017-07-27T05:49:19.293Z,1108
2017-07-27T05:50:20.003Z,1076
2017-07-27T05:51:19.298Z,1064
2017-07-27T05:52:19.004Z,1056
2017-07-27T05:53:19.303Z,1048
2017-07-27T05:54:19.298Z,1052
2017-07-27T05:55:20.534Z,1072
2017-07-27T05:56:19.295Z,1100
2017-07-27T05:57:19.302Z,1128
2017-07-27T05:58:19.312Z,1144
2017-07-27T05:59:19.296Z,1180
2017-07-27T06:00:20.034Z,1228
2017-07-27T06:01:19.315Z,1300
2017-07-27T06:02:19.320Z,1412
2017-07-27T06:03:19.081Z,1504
2017-07-27T06:04:18.719Z,1580
2017-07-27T06:05:20.069Z,1608
2017-07-27T06:06:19.021Z,1604
2017-07-27T06:07:19.351Z,1564
2017-07-27T06:08:19.016Z,1524
2017-07-27T06:09:19.024Z,1560
2017-07-27T06:10:20.327Z,1616
2017-07-27T06:11:19.326Z,1676
2017-07-27T06:12:19.025Z,1764
2017-07-27T06:13:19.331Z,1908
2017-07-27T06:14:19.327Z,1956
2017-07-27T06:15:20.088Z,1952
2017-07-27T06:16:19.022Z,2016
2017-07-27T06:17:19.329Z,2124
2017-07-27T06:18:20.334Z,2180
2017-07-27T06:19:19.332Z,2192
2017-07-27T06:20:20.114Z,2128
2017-07-27T06:21:19.339Z,2072
2017-07-27T06:22:19.337Z,2008
2017-07-27T06:23:19.043Z,1988
2017-07-27T06:24:19.338Z,2020
2017-07-27T06:25:19.660Z,2064
2017-07-27T06:26:19.039Z,2056
2017-07-27T06:27:19.345Z,2048
2017-07-27T06:28:19.061Z,2028
2017-07-27T06:29:19.346Z,2080
2017-07-27T06:30:20.261Z,2180
2017-07-27T06:31:19.350Z,2392
2017-07-27T06:32:19.070Z,2624
2017-07-27T06:33:21.157Z,2872
2017-07-27T06:34:19.063Z,3096
2017-07-27T06:35:20.288Z,3340
2017-07-27T06:36:19.070Z,3628
2017-07-27T06:37:19.373Z,3892
2017-07-27T06:38:19.363Z,4000
2017-07-27T06:39:19.097Z,4132
2017-07-27T06:40:20.536Z,4368
2017-07-27T06:41:19.072Z,4660
2017-07-27T06:42:19.382Z,4924
2017-07-27T06:43:19.387Z,5040
2017-07-27T06:44:19.094Z,4976
2017-07-27T06:45:20.557Z,4840
2017-07-27T06:46:20.526Z,4676
2017-07-27T06:47:19.377Z,4580
2017-07-27T06:48:19.777Z,4452
2017-07-27T06:49:19.382Z,4148
2017-07-27T06:50:19.446Z,3828
2017-07-27T06:51:19.100Z,3496
2017-07-27T06:52:19.384Z,3204
2017-07-27T06:53:19.102Z,3052
2017-07-27T06:54:19.388Z,2960
2017-07-27T06:55:20.258Z,2816
2017-07-27T06:56:19.399Z,2616
2017-07-27T06:57:19.409Z,2416
2017-07-27T06:58:19.096Z,2296
2017-07-27T06:59:18.804Z,2196
2017-07-27T07:00:20.355Z,2120
2017-07-27T07:01:19.409Z,2124
2017-07-27T07:02:19.112Z,2184
2017-07-27T07:03:19.710Z,2312
2017-07-27T07:04:19.416Z,2404
2017-07-27T07:05:19.899Z,2420
2017-07-27T07:06:19.420Z,2412
2017-07-27T07:07:19.415Z,2468
2017-07-27T07:08:19.115Z,2580
2017-07-27T07:09:19.420Z,2712
2017-07-27T07:10:20.482Z,2796
2017-07-27T07:11:19.423Z,2832
2017-07-27T07:12:19.428Z,2784
2017-07-27T07:13:19.428Z,2664
2017-07-27T07:14:19.429Z,2656
2017-07-27T07:15:20.333Z,2700
2017-07-27T07:16:19.147Z,2856
2017-07-27T07:17:19.435Z,3180
2017-07-27T07:18:18.851Z,3632
2017-07-27T07:19:19.442Z,4116
2017-07-27T07:20:20.572Z,4508
2017-07-27T07:21:19.147Z,4648
2017-07-27T07:22:19.168Z,4384
2017-07-27T07:23:19.159Z,3976
2017-07-27T07:24:19.462Z,3640
2017-07-27T07:25:19.507Z,3316
2017-07-27T07:26:19.176Z,3116
2017-07-27T07:27:19.462Z,3056
2017-07-27T07:28:19.465Z,3108
2017-07-27T07:29:19.470Z,3184
2017-07-27T07:30:20.091Z,3288
2017-07-27T07:31:19.188Z,3372
2017-07-27T07:32:19.187Z,3412
2017-07-27T07:33:19.468Z,3356
2017-07-27T07:34:19.219Z,3224
2017-07-27T07:35:20.703Z,3112
2017-07-27T07:36:19.178Z,3116
2017-07-27T07:37:19.472Z,3212
2017-07-27T07:38:18.895Z,3368
2017-07-27T07:39:19.488Z,3584
2017-07-27T07:40:20.215Z,3772
2017-07-27T07:41:19.486Z,3928
2017-07-27T07:42:19.197Z,3980
2017-07-27T07:43:19.489Z,3936
2017-07-27T07:44:19.494Z,3856
2017-07-27T07:45:20.588Z,3904
2017-07-27T07:46:19.493Z,3972
2017-07-27T07:47:19.502Z,4016
2017-07-27T07:48:19.201Z,3920
2017-07-27T07:49:23.768Z,3652
2017-07-27T07:50:19.969Z,3372
2017-07-27T07:51:19.506Z,3216
2017-07-27T07:52:19.212Z,3252
2017-07-27T07:53:19.221Z,3292
2017-07-27T07:54:19.525Z,3312
2017-07-27T07:55:20.115Z,3420
2017-07-27T07:56:19.237Z,3552
2017-07-27T07:57:19.233Z,3620
2017-07-27T07:58:19.534Z,3684
2017-07-27T07:59:19.232Z,3708
2017-07-27T08:00:20.147Z,3828
2017-07-27T08:01:19.239Z,3972
2017-07-27T08:02:19.240Z,4260
2017-07-27T08:03:19.252Z,4648
2017-07-27T08:04:19.739Z,4880
2017-07-27T08:05:19.814Z,4844
2017-07-27T08:06:19.265Z,4532
2017-07-27T08:07:19.545Z,4136
2017-07-27T08:08:19.552Z,3744
2017-07-27T08:09:19.253Z,3424
2017-07-27T08:10:19.608Z,3372
2017-07-27T08:11:19.254Z,3484
2017-07-27T08:12:19.558Z,3840
2017-07-27T08:13:19.567Z,4224
2017-07-27T08:14:19.566Z,5044
2017-07-27T08:15:19.883Z,5880
2017-07-27T08:16:19.577Z,6528
2017-07-27T08:17:19.581Z,6856
2017-07-27T08:18:19.593Z,6788
2017-07-27T08:19:18.972Z,6504
2017-07-27T08:20:20.182Z,6232
2017-07-27T08:21:19.279Z,6236
2017-07-27T08:22:19.282Z,6312
2017-07-27T08:23:19.593Z,6340
2017-07-27T08:24:19.299Z,6172
2017-07-27T08:25:20.092Z,5880
2017-07-27T08:26:19.599Z,5648
2017-07-27T08:27:19.602Z,5684
2017-07-27T08:28:19.623Z,5768
2017-07-27T08:29:19.650Z,5796
2017-07-27T08:30:20.761Z,5784
2017-07-27T08:31:19.612Z,5668
2017-07-27T08:32:19.645Z,5508
2017-07-27T08:33:19.671Z,5344
2017-07-27T08:34:19.348Z,5156
2017-07-27T08:35:21.679Z,4984
2017-07-27T08:36:19.629Z,4884
2017-07-27T08:37:19.056Z,4944
2017-07-27T08:38:19.354Z,5332
2017-07-27T08:39:19.656Z,5464
2017-07-27T08:40:20.543Z,5656
2017-07-27T08:41:19.660Z,6064
2017-07-27T08:42:19.664Z,6436
2017-07-27T08:43:19.657Z,6676
2017-07-27T08:44:19.655Z,7020
2017-07-27T08:45:20.000Z,7748
2017-07-27T08:46:19.700Z,8392
2017-07-27T08:47:19.668Z,8648
2017-07-27T08:48:19.679Z,8812
2017-07-27T08:49:19.668Z,8888
2017-07-27T08:50:22.678Z,8604
2017-07-27T08:51:19.688Z,8736
2017-07-27T08:52:19.695Z,9028
2017-07-27T08:53:19.396Z,9368
2017-07-27T08:54:19.739Z,9516
2017-07-27T08:55:20.446Z,9400
2017-07-27T08:56:19.397Z,9044
2017-07-27T08:57:19.739Z,8688
2017-07-27T08:58:19.409Z,8744
2017-07-27T08:59:19.411Z,8880
2017-07-27T09:00:20.460Z,9212
2017-07-27T09:01:19.424Z,9792
2017-07-27T09:02:19.741Z,10564
2017-07-27T09:03:19.430Z,11024
2017-07-27T09:04:19.441Z,10964
2017-07-27T09:05:23.043Z,10672
2017-07-27T09:06:19.743Z,10584
2017-07-27T09:07:19.744Z,10776
2017-07-27T09:08:19.444Z,10584
2017-07-27T09:09:19.449Z,10680
2017-07-27T09:10:20.406Z,10476
2017-07-27T09:11:19.470Z,10768
2017-07-27T09:12:19.767Z,10520
2017-07-27T09:13:21.250Z,9944
2017-07-27T09:14:22.289Z,9560
2017-07-27T09:15:20.353Z,9184
2017-07-27T09:16:19.812Z,8804
2017-07-27T09:17:19.806Z,8648
2017-07-27T09:18:19.185Z,9196
2017-07-27T09:19:19.830Z,9800
2017-07-27T09:20:20.147Z,10032
2017-07-27T09:21:19.506Z,9920
2017-07-27T09:22:19.812Z,10140
2017-07-27T09:23:19.824Z,10452
2017-07-27T09:24:19.827Z,10696
2017-07-27T09:25:20.446Z,10788
2017-07-27T09:26:19.830Z,11032
2017-07-27T09:27:19.535Z,11724
2017-07-27T09:28:19.840Z,12356
2017-07-27T09:29:19.550Z,12980
2017-07-27T09:30:19.563Z,13304
2017-07-27T09:31:19.551Z,13308
2017-07-27T09:32:19.866Z,13316
2017-07-27T09:33:19.867Z,13260
2017-07-27T09:34:19.581Z,13772
2017-07-27T09:35:20.242Z,13760
2017-07-27T09:36:19.628Z,13576
2017-07-27T09:37:19.881Z,13072
2017-07-27T09:38:19.883Z,12516
2017-07-27T09:39:19.288Z,11904
2017-07-27T09:40:20.566Z,11624
2017-07-27T09:41:19.911Z,11204
2017-07-27T09:42:19.911Z,10580
2017-07-27T09:43:19.916Z,10052
2017-07-27T09:44:19.619Z,9328
2017-07-27T09:45:20.947Z,8632
2017-07-27T09:46:19.629Z,8004
2017-07-27T09:47:19.645Z,7356
2017-07-27T09:48:19.937Z,6852
2017-07-27T09:49:19.942Z,6224
2017-07-27T09:50:20.863Z,5836
2017-07-27T09:51:20.207Z,5668
2017-07-27T09:52:19.968Z,5428
2017-07-27T09:53:19.960Z,5332
2017-07-27T09:54:19.986Z,5564
2017-07-27T09:55:20.649Z,5616
2017-07-27T09:56:19.981Z,5836
2017-07-27T09:57:19.980Z,6120
2017-07-27T09:58:20.011Z,6736
2017-07-27T09:59:19.994Z,7280
2017-07-27T10:00:21.147Z,7592
2017-07-27T10:01:20.178Z,7508
2017-07-27T10:02:19.430Z,7324
2017-07-27T10:03:20.266Z,7304
2017-07-27T10:04:21.177Z,7840
2017-07-27T10:05:22.297Z,8500
2017-07-27T10:06:22.587Z,9272
2017-07-27T10:07:22.108Z,9792
2017-07-27T10:08:20.388Z,9936
2017-07-27T10:09:19.698Z,10060
2017-07-27T10:10:21.824Z,9972
2017-07-27T10:11:20.921Z,9536
2017-07-27T10:12:20.134Z,9052
2017-07-27T10:13:20.053Z,8404
2017-07-27T10:14:20.059Z,7752
2017-07-27T10:15:20.651Z,7196
2017-07-27T10:16:20.071Z,6996
2017-07-27T10:17:19.772Z,7088
2017-07-27T10:18:19.474Z,7408
2017-07-27T10:19:19.781Z,7936
2017-07-27T10:20:20.518Z,8648
2017-07-27T10:21:22.141Z,9160
2017-07-27T10:22:19.484Z,9464
2017-07-27T10:23:20.139Z,9664
2017-07-27T10:24:19.793Z,9732
2017-07-27T10:25:20.771Z,9756
2017-07-27T10:26:20.110Z,9708
2017-07-27T10:27:20.115Z,9832
2017-07-27T10:28:20.111Z,10204
2017-07-27T10:29:19.821Z,10884
2017-07-27T10:30:20.835Z,11516
2017-07-27T10:31:19.527Z,11780
2017-07-27T10:32:20.145Z,12012
2017-07-27T10:33:19.841Z,12220
2017-07-27T10:34:20.151Z,12236
2017-07-27T10:35:20.279Z,12076
2017-07-27T10:36:20.206Z,11952
2017-07-27T10:37:20.165Z,11876
2017-07-27T10:38:20.161Z,11804
2017-07-27T10:39:20.162Z,11788
2017-07-27T10:40:20.571Z,11648
2017-07-27T10:41:20.176Z,11416
2017-07-27T10:42:20.202Z,11372
2017-07-27T10:43:19.888Z,11688
2017-07-27T10:44:19.891Z,12016
2017-07-27T10:45:20.617Z,12364
2017-07-27T10:46:19.900Z,12704
2017-07-27T10:47:19.904Z,12884
2017-07-27T10:48:20.210Z,12968
2017-07-27T10:49:19.924Z,13012
2017-07-27T10:50:20.362Z,13144
2017-07-27T10:51:22.731Z,13188
2017-07-27T10:52:20.224Z,13252
2017-07-27T10:53:20.235Z,13160
2017-07-27T10:54:19.936Z,13076
2017-07-27T10:55:21.289Z,12612
2017-07-27T10:56:19.954Z,12288
2017-07-27T10:57:20.250Z,12268
2017-07-27T10:58:19.659Z,12456
2017-07-27T10:59:20.274Z,12472
2017-07-27T11:00:20.836Z,12464
2017-07-27T11:01:20.280Z,12364
2017-07-27T11:02:20.280Z,12320
2017-07-27T11:03:19.985Z,12472
2017-07-27T11:04:19.693Z,12572
2017-07-27T11:05:20.149Z,12664
2017-07-27T11:06:20.002Z,13288
2017-07-27T11:07:20.310Z,14220
2017-07-27T11:08:19.721Z,15840
2017-07-27T11:09:20.325Z,16768
2017-07-27T11:10:21.554Z,15872
2017-07-27T11:11:20.349Z,15516
2017-07-27T11:12:20.346Z,14408
2017-07-27T11:13:20.349Z,13604
2017-07-27T11:14:20.054Z,13124
2017-07-27T11:15:21.303Z,12584
2017-07-27T11:16:20.368Z,12224
2017-07-27T11:17:20.392Z,11884
2017-07-27T11:18:19.785Z,11608
2017-07-27T11:19:20.106Z,11320
2017-07-27T11:20:20.218Z,11252
2017-07-27T11:21:20.092Z,11112
2017-07-27T11:22:20.420Z,10584
2017-07-27T11:23:20.419Z,10644
2017-07-27T11:24:20.413Z,10160
2017-07-27T11:25:20.716Z,9892
2017-07-27T11:26:20.125Z,9840
2017-07-27T11:27:20.437Z,9536
2017-07-27T11:28:20.443Z,9752
2017-07-27T11:29:20.461Z,9808
2017-07-27T11:30:20.610Z,10144
2017-07-27T11:31:20.455Z,9916
2017-07-27T11:32:20.174Z,10420
2017-07-27T11:33:20.462Z,11488
2017-07-27T11:34:20.467Z,12680
2017-07-27T11:35:20.835Z,12604
2017-07-27T11:36:20.475Z,12440
2017-07-27T11:37:19.888Z,12084
2017-07-27T11:38:20.185Z,12052
2017-07-27T11:39:20.531Z,11632
2017-07-27T11:40:21.532Z,10704
2017-07-27T11:41:20.510Z,11020
2017-07-27T11:42:20.216Z,11652
2017-07-27T11:43:20.522Z,10904
2017-07-27T11:44:20.539Z,11096
2017-07-27T11:45:21.475Z,11360
2017-07-27T11:46:20.543Z,11516
2017-07-27T11:47:20.239Z,11948
2017-07-27T11:48:20.554Z,11520
2017-07-27T11:49:20.562Z,11404
2017-07-27T11:50:20.773Z,11836
2017-07-27T11:51:20.565Z,12184
2017-07-27T11:52:20.990Z,12584
2017-07-27T11:53:20.591Z,11988
2017-07-27T11:54:20.598Z,12172
2017-07-27T11:55:20.808Z,12292
2017-07-27T11:56:20.603Z,12268
2017-07-27T11:57:20.603Z,11748
2017-07-27T11:58:20.315Z,11384
2017-07-27T11:59:20.067Z,11804
2017-07-27T12:00:21.527Z,12740
2017-07-27T12:01:23.390Z,11404
2017-07-27T12:02:24.898Z,10336
2017-07-27T12:03:23.907Z,10580
2017-07-27T12:04:20.668Z,11040
2017-07-27T12:05:21.455Z,11160
2017-07-27T12:06:20.665Z,10828
2017-07-27T12:07:22.311Z,10504
2017-07-27T12:08:20.363Z,10064
2017-07-27T12:09:20.365Z,9648
2017-07-27T12:10:20.539Z,9424
2017-07-27T12:11:20.694Z,9724
2017-07-27T12:12:20.078Z,9320
2017-07-27T12:13:20.689Z,9260
2017-07-27T12:14:20.697Z,9564
2017-07-27T12:15:21.542Z,9580
2017-07-27T12:16:20.713Z,9808
2017-07-27T12:17:20.721Z,9820
2017-07-27T12:18:20.418Z,10612
2017-07-27T12:19:20.430Z,11216
2017-07-27T12:20:21.019Z,12440
2017-07-27T12:21:20.758Z,12540
2017-07-27T12:22:21.646Z,12936
2017-07-27T12:23:20.474Z,13128
2017-07-27T12:24:20.753Z,12920
2017-07-27T12:25:21.263Z,12324
2017-07-27T12:26:20.757Z,12092
2017-07-27T12:27:20.469Z,12328
2017-07-27T12:28:20.471Z,11624
2017-07-27T12:29:20.801Z,10728
2017-07-27T12:30:21.540Z,9624
2017-07-27T12:31:20.493Z,9224
2017-07-27T12:32:20.498Z,9708
2017-07-27T12:33:20.801Z,10328
2017-07-27T12:34:20.811Z,10684
2017-07-27T12:35:21.247Z,10832
2017-07-27T12:36:20.828Z,10644
2017-07-27T12:37:20.581Z,9932
2017-07-27T12:38:21.255Z,8964
2017-07-27T12:39:20.542Z,8088
2017-07-27T12:40:21.093Z,7260
2017-07-27T12:41:21.237Z,6700
2017-07-27T12:42:20.552Z,6324
2017-07-27T12:43:20.861Z,6012
2017-07-27T12:44:20.861Z,5588
2017-07-27T12:45:20.985Z,5236
2017-07-27T12:46:20.580Z,5104
2017-07-27T12:47:20.881Z,5140
2017-07-27T12:48:20.898Z,5240
2017-07-27T12:49:20.893Z,5220
2017-07-27T12:50:21.318Z,5168
2017-07-27T12:51:20.902Z,5172
2017-07-27T12:52:23.309Z,5056
2017-07-27T12:53:20.903Z,4856
2017-07-27T12:54:20.618Z,4868
2017-07-27T12:55:21.429Z,4912
2017-07-27T12:56:20.339Z,4936
2017-07-27T12:57:20.648Z,4652
2017-07-27T12:58:20.942Z,4384
2017-07-27T12:59:20.360Z,4192
2017-07-27T13:00:21.135Z,4040
2017-07-27T13:01:20.965Z,3892
2017-07-27T13:02:20.998Z,3692
2017-07-27T13:03:20.964Z,3504
2017-07-27T13:04:20.999Z,3476
2017-07-27T13:05:21.067Z,3724
2017-07-27T13:06:20.971Z,4312
2017-07-27T13:07:20.986Z,5220
2017-07-27T13:08:21.051Z,5896
2017-07-27T13:09:20.991Z,5992
2017-07-27T13:10:21.218Z,5972
2017-07-27T13:11:20.719Z,6096
2017-07-27T13:12:20.729Z,6396
2017-07-27T13:13:21.022Z,6912
2017-07-27T13:14:21.023Z,7360
2017-07-27T13:15:21.512Z,7056
2017-07-27T13:16:21.033Z,6468
2017-07-27T13:17:21.027Z,6860
2017-07-27T13:18:21.041Z,7872
2017-07-27T13:19:20.735Z,8188
2017-07-27T13:20:21.205Z,7552
2017-07-27T13:21:20.443Z,7188
2017-07-27T13:22:21.054Z,7116
2017-07-27T13:23:22.881Z,7436
2017-07-27T13:24:21.069Z,7664
2017-07-27T13:25:20.989Z,7228
2017-07-27T13:26:21.075Z,6352
2017-07-27T13:27:21.078Z,5576
2017-07-27T13:28:21.094Z,5044
2017-07-27T13:29:20.787Z,4776
2017-07-27T13:30:21.949Z,5004
2017-07-27T13:31:20.210Z,5840
2017-07-27T13:32:21.121Z,6784
2017-07-27T13:33:21.125Z,7340
2017-07-27T13:34:21.124Z,7888
2017-07-27T13:35:21.872Z,8788
2017-07-27T13:36:21.122Z,9360
2017-07-27T13:37:21.156Z,9140
2017-07-27T13:38:21.127Z,8524